Time;durP1;ratioP1;P1;durP2;ratioP2;P2;SDS_P1;SDS_P2;PMS_P1;PMS_P2;Temp;Humidity;BMP_temperature;BMP_pressure;BME280_temperature;BME280_humidity;BME280_pressure;Samples;Min_cycle;Max_cycle;Signal;HPM_P1;HPM_P2
2021/12/03 00:00:05;;;;;;;;;;;2.40;99.90;3.00;99271.00;;;;344816;28;82424;-92
2021/12/03 00:00:21;;;;;;;;;;;2.40;99.90;3.00;99270.00;;;;343001;28;90381;-92
2021/12/03 00:00:46;;;;;;;;;;;2.40;99.90;3.00;99267.00;;;;340899;28;83328;-91
2021/12/03 00:01:05;;;;;;;;;;;2.40;99.90;3.00;99265.00;;;;343068;28;90096;-91
2021/12/03 00:01:26;;;;;;;;;;;2.40;99.90;3.00;99276.00;;;;340542;28;83689;-91
2021/12/03 00:01:39;;;;;;;;;;;2.40;99.90;3.00;99265.00;;;;342756;28;90444;-91
2021/12/03 00:01:51;;;;;;;;;;;2.40;99.90;3.00;99272.00;;;;341830;28;83570;-91
2021/12/03 00:02:03;;;;;;;;;;;2.40;99.90;3.00;99270.00;;;;341621;28;90893;-91
2021/12/03 00:02:15;;;;;;;;;;;2.40;99.90;3.00;99274.00;;;;340617;28;83408;-92
2021/12/03 00:02:27;;;;;;;;;;;2.40;99.90;2.90;99271.00;;;;340265;28;91608;-92
2021/12/03 00:02:39;;;;;;;;;;;2.40;99.90;2.90;99275.00;;;;341798;28;83568;-91
2021/12/03 00:02:51;;;;;;;;;;;2.40;99.90;2.90;99264.00;;;;342723;28;89633;-91
2021/12/03 00:03:03;;;;;;;;;;;2.40;99.90;3.00;99272.00;;;;343249;28;82506;-94
2021/12/03 00:03:15;;;;;;;;;;;2.40;99.90;2.90;99276.00;;;;341539;28;91548;-91
2021/12/03 00:03:27;;;;;;;;;;;2.40;99.90;3.00;99277.00;;;;344304;28;83489;-92
2021/12/03 00:03:39;;;;;;;;;;;2.30;99.90;3.00;99281.00;;;;341565;28;91496;-92
2021/12/03 00:03:51;;;;;;;;;;;2.40;99.90;3.00;99279.00;;;;343812;28;82496;-91
2021/12/03 00:04:03;;;;;;;;;;;2.30;99.90;3.00;99278.00;;;;342922;28;90647;-91
2021/12/03 00:04:15;;;;;;;;;;;2.40;99.90;3.00;99269.00;;;;342017;28;83165;-92
2021/12/03 00:04:26;;;;;;;;;;;2.40;99.90;3.00;99267.00;;;;343152;28;90643;-91
2021/12/03 00:04:38;;;;;;;;;;;2.40;99.90;3.00;99268.00;;;;341981;28;82419;-91
2021/12/03 00:04:50;;;;;;;;;;;2.40;99.90;3.00;99265.00;;;;341542;28;91090;-92
2021/12/03 00:05:02;;;;;;;;;;;2.40;99.90;3.10;99267.00;;;;342006;28;83503;-91
2021/12/03 00:05:14;;;;;;;;;;;2.40;99.90;3.10;99267.00;;;;340092;28;90669;-90
2021/12/03 00:05:26;;;;;;;;;;;2.40;99.90;3.00;99265.00;;;;340368;28;83434;-92
2021/12/03 00:05:38;;;;;;;;;;;2.40;99.90;3.00;99274.00;;;;342842;28;91302;-91
2021/12/03 00:05:51;;;;;;;;;;;2.40;99.90;3.10;99276.00;;;;341999;28;83366;-91
2021/12/03 00:06:03;;;;;;;;;;;2.40;99.90;3.10;99268.00;;;;343097;28;91164;-91
2021/12/03 00:06:15;;;;;;;;;;;2.40;99.90;3.00;99269.00;;;;340934;28;82550;-92
2021/12/03 00:06:27;;;;;;;;;;;2.40;99.90;3.10;99260.00;;;;342908;28;91612;-92
2021/12/03 00:06:39;;;;;;;;;;;2.40;99.90;3.10;99272.00;;;;343315;28;82438;-92
2021/12/03 00:06:51;;;;;;;;;;;2.40;99.90;3.10;99269.00;;;;344133;28;90777;-92
2021/12/03 00:07:03;;;;;;;;;;;2.40;99.90;3.10;99266.00;;;;341189;28;82525;-92
2021/12/03 00:07:15;;;;;;;;;;;2.40;99.90;3.10;99265.00;;;;340565;28;92134;-93
2021/12/03 00:07:26;;;;;;;;;;;2.40;99.90;3.10;99263.00;;;;343480;28;83623;-91
2021/12/03 00:07:41;;;;;;;;;;;2.40;99.90;3.00;99265.00;;;;341708;28;91386;-92
2021/12/03 00:07:53;;;;;;;;;;;2.40;99.90;3.00;99264.00;;;;342302;28;83438;-91
2021/12/03 00:08:05;;;;;;;;;;;2.40;99.90;2.90;99274.00;;;;343235;28;88994;-91
2021/12/03 00:08:18;;;;;;;;;;;2.40;99.90;3.00;99270.00;;;;342460;28;82545;-92
2021/12/03 00:08:31;;;;;;;;;;;2.40;99.90;3.00;99280.00;;;;343178;28;90709;-92
2021/12/03 00:08:43;;;;;;;;;;;2.40;99.90;3.00;99269.00;;;;342414;28;82474;-91
2021/12/03 00:08:55;;;;;;;;;;;2.40;99.90;2.90;99278.00;;;;343213;28;91826;-91
2021/12/03 00:09:07;;;;;;;;;;;2.40;99.90;3.00;99276.00;;;;341202;28;82506;-92
2021/12/03 00:09:19;;;;;;;;;;;2.40;99.90;3.00;99275.00;;;;341679;28;90272;-92
2021/12/03 00:09:35;;;;;;;;;;;2.40;99.90;3.10;99269.00;;;;342368;28;83475;-92
2021/12/03 00:09:47;;;;;;;;;;;2.40;99.90;3.00;99278.00;;;;343265;28;92460;-92
2021/12/03 00:09:59;;;;;;;;;;;2.40;99.90;3.00;99267.00;;;;342322;28;83501;-91
2021/12/03 00:10:12;;;;;;;;;;;2.40;99.90;3.10;99278.00;;;;343436;28;91964;-92
2021/12/03 00:10:24;;;;;;;;;;;2.40;99.90;3.10;99272.00;;;;343034;28;83468;-91
2021/12/03 00:10:37;;;;;;;;;;;2.40;99.90;3.10;99276.00;;;;341741;28;91745;-92
2021/12/03 00:10:54;;;;;;;;;;;2.40;99.90;3.10;99261.00;;;;340749;28;82406;-92
2021/12/03 00:11:09;;;;;;;;;;;2.40;99.90;3.10;99279.00;;;;343055;28;89040;-92
2021/12/03 00:11:21;;;;;;;;;;;2.40;99.90;3.10;99268.00;;;;344537;28;83217;-92
2021/12/03 00:11:32;;;;;;;;;;;2.40;99.90;3.10;99273.00;;;;344079;28;91664;-91
2021/12/03 00:11:44;;;;;;;;;;;2.50;99.90;3.10;99268.00;;;;341968;28;83392;-92
2021/12/03 00:11:56;;;;;;;;;;;2.40;99.90;3.10;99271.00;;;;341388;28;92504;-92
2021/12/03 00:12:08;;;;;;;;;;;2.40;99.90;3.10;99277.00;;;;343385;28;83392;-92
2021/12/03 00:12:21;;;;;;;;;;;2.40;99.90;3.10;99273.00;;;;341131;28;90228;-91
2021/12/03 00:12:32;;;;;;;;;;;2.50;99.90;3.00;99268.00;;;;341908;28;83347;-92
2021/12/03 00:12:45;;;;;;;;;;;2.50;99.90;3.10;99272.00;;;;340189;28;91239;-93
2021/12/03 00:12:58;;;;;;;;;;;2.50;99.90;3.00;99269.00;;;;342016;28;82610;-91
2021/12/03 00:13:09;;;;;;;;;;;2.40;99.90;3.00;99273.00;;;;342769;28;90407;-91
2021/12/03 00:13:21;;;;;;;;;;;2.40;99.90;3.00;99279.00;;;;343286;28;82443;-91
2021/12/03 00:13:33;;;;;;;;;;;2.40;99.90;3.10;99275.00;;;;344283;28;89431;-91
2021/12/03 00:13:45;;;;;;;;;;;2.40;99.90;3.00;99271.00;;;;344551;28;82365;-91
2021/12/03 00:13:57;;;;;;;;;;;2.40;99.90;3.00;99275.00;;;;344177;28;91248;-92
2021/12/03 00:14:09;;;;;;;;;;;2.50;99.90;3.10;99267.00;;;;342203;28;82597;-91
2021/12/03 00:14:21;;;;;;;;;;;2.50;99.90;3.10;99275.00;;;;340173;28;91178;-92
2021/12/03 00:14:34;;;;;;;;;;;2.40;99.90;3.10;99282.00;;;;342084;28;82527;-92
2021/12/03 00:14:45;;;;;;;;;;;2.40;99.90;3.10;99274.00;;;;342935;28;91234;-92
2021/12/03 00:14:57;;;;;;;;;;;2.40;99.90;3.10;99280.00;;;;344859;28;82525;-92
2021/12/03 00:15:09;;;;;;;;;;;2.50;99.90;3.10;99276.00;;;;344047;28;90187;-92
2021/12/03 00:15:23;;;;;;;;;;;2.50;99.90;3.10;99270.00;;;;344077;28;83625;-92
2021/12/03 00:15:35;;;;;;;;;;;2.50;99.90;3.10;99273.00;;;;344302;28;90277;-92
2021/12/03 00:15:47;;;;;;;;;;;2.50;99.90;3.00;99267.00;;;;342007;28;83376;-91
2021/12/03 00:15:59;;;;;;;;;;;2.50;99.90;3.10;99274.00;;;;343948;28;90568;-91
2021/12/03 00:16:11;;;;;;;;;;;2.50;99.90;3.10;99279.00;;;;343378;28;82413;-90
2021/12/03 00:16:23;;;;;;;;;;;2.50;99.90;3.20;99274.00;;;;343750;28;88128;-92
2021/12/03 00:16:34;;;;;;;;;;;2.40;99.90;3.20;99271.00;;;;343330;28;82564;-92
2021/12/03 00:16:46;;;;;;;;;;;2.50;99.90;3.20;99283.00;;;;344243;28;90263;-92
2021/12/03 00:16:58;;;;;;;;;;;2.50;99.90;3.20;99277.00;;;;343375;28;83400;-92
2021/12/03 00:17:10;;;;;;;;;;;2.50;99.90;3.20;99282.00;;;;342895;28;91211;-92
2021/12/03 00:17:21;;;;;;;;;;;2.50;99.90;3.20;99273.00;;;;344667;28;83373;-92
2021/12/03 00:17:33;;;;;;;;;;;2.50;99.90;3.10;99273.00;;;;344327;28;90015;-91
2021/12/03 00:17:45;;;;;;;;;;;2.50;99.90;3.10;99280.00;;;;341661;28;82468;-91
2021/12/03 00:17:57;;;;;;;;;;;2.50;99.90;3.10;99274.00;;;;342749;28;92371;-91
2021/12/03 00:18:08;;;;;;;;;;;2.50;99.90;3.20;99275.00;;;;343319;28;83454;-91
2021/12/03 00:18:20;;;;;;;;;;;2.50;99.90;3.20;99273.00;;;;342621;28;91843;-91
2021/12/03 00:18:33;;;;;;;;;;;2.60;99.90;3.20;99267.00;;;;341973;28;83454;-92
2021/12/03 00:18:45;;;;;;;;;;;2.50;99.90;3.20;99275.00;;;;342957;28;91726;-92
2021/12/03 00:18:57;;;;;;;;;;;2.50;99.90;3.20;99273.00;;;;344580;28;83580;-92
2021/12/03 00:19:08;;;;;;;;;;;2.50;99.90;3.10;99272.00;;;;342857;28;91717;-92
2021/12/03 00:19:20;;;;;;;;;;;2.50;99.90;3.10;99271.00;;;;344343;28;83592;-92
2021/12/03 00:19:32;;;;;;;;;;;2.50;99.90;3.10;99269.00;;;;342853;28;91365;-91
2021/12/03 00:19:44;;;;;;;;;;;2.50;99.90;3.20;99264.00;;;;340617;28;83385;-92
2021/12/03 00:19:56;;;;;;;;;;;2.50;99.90;3.20;99264.00;;;;342844;28;91107;-91
2021/12/03 00:20:10;;;;;;;;;;;2.50;99.90;3.20;99270.00;;;;341941;28;83583;-92
2021/12/03 00:20:23;;;;;;;;;;;2.50;99.90;3.20;99265.00;;;;342960;28;91396;-91
2021/12/03 00:20:36;;;;;;;;;;;2.50;99.90;3.20;99279.00;;;;343215;28;83506;-92
2021/12/03 00:20:48;;;;;;;;;;;2.50;99.90;3.20;99268.00;;;;342868;28;90365;-91
2021/12/03 00:21:03;;;;;;;;;;;2.60;99.90;3.30;99279.00;;;;341514;28;82581;-92
2021/12/03 00:21:15;;;;;;;;;;;2.50;99.90;3.30;99273.00;;;;341408;28;90553;-92
2021/12/03 00:21:27;;;;;;;;;;;2.50;99.90;3.20;99268.00;;;;342938;28;82553;-91
2021/12/03 00:21:39;;;;;;;;;;;2.60;99.90;3.30;99284.00;;;;342794;28;91586;-92
2021/12/03 00:21:51;;;;;;;;;;;2.60;99.90;3.20;99279.00;;;;343172;28;82363;-94
2021/12/03 00:22:02;;;;;;;;;;;2.60;99.90;3.10;99276.00;;;;344146;28;92412;-92
2021/12/03 00:22:14;;;;;;;;;;;2.60;99.90;3.10;99273.00;;;;342044;28;82263;-92
2021/12/03 00:22:26;;;;;;;;;;;2.60;99.90;3.20;99275.00;;;;340426;28;90471;-91
2021/12/03 00:22:38;;;;;;;;;;;2.60;99.90;3.20;99275.00;;;;343275;28;83317;-91
2021/12/03 00:22:51;;;;;;;;;;;2.50;99.90;3.20;99281.00;;;;342725;28;91736;-91
2021/12/03 00:23:03;;;;;;;;;;;2.60;99.90;3.20;99285.00;;;;343145;28;83490;-91
2021/12/03 00:23:16;;;;;;;;;;;2.50;99.90;3.10;99278.00;;;;342855;28;90492;-91
2021/12/03 00:23:28;;;;;;;;;;;2.60;99.90;3.20;99270.00;;;;343368;28;83281;-91
2021/12/03 00:23:40;;;;;;;;;;;2.50;99.90;3.20;99272.00;;;;342897;28;91795;-92
2021/12/03 00:23:52;;;;;;;;;;;2.50;99.90;3.20;99269.00;;;;343277;28;82571;-91
2021/12/03 00:24:04;;;;;;;;;;;2.50;99.90;3.10;99280.00;;;;342846;28;91507;-91
2021/12/03 00:24:16;;;;;;;;;;;2.50;99.90;3.10;99275.00;;;;341987;28;83436;-91
2021/12/03 00:24:27;;;;;;;;;;;2.50;99.90;3.20;99279.00;;;;341232;28;90265;-92
2021/12/03 00:24:39;;;;;;;;;;;2.50;99.90;3.20;99277.00;;;;343015;28;83487;-91
2021/12/03 00:24:51;;;;;;;;;;;2.50;99.90;3.20;99273.00;;;;341492;28;90444;-91
2021/12/03 00:25:04;;;;;;;;;;;2.50;99.90;3.20;99283.00;;;;343132;28;84018;-91
2021/12/03 00:25:15;;;;;;;;;;;2.50;99.90;3.10;99274.00;;;;341530;28;92007;-91
2021/12/03 00:25:27;;;;;;;;;;;2.50;99.90;3.10;99273.00;;;;344407;28;83593;-91
2021/12/03 00:25:39;;;;;;;;;;;2.50;99.90;3.20;99272.00;;;;344271;28;91533;-90
2021/12/03 00:25:51;;;;;;;;;;;2.50;99.90;3.20;99274.00;;;;343245;28;83417;-91
2021/12/03 00:26:03;;;;;;;;;;;2.50;99.90;3.20;99279.00;;;;342637;28;91794;-91
2021/12/03 00:26:15;;;;;;;;;;;2.50;99.90;3.20;99277.00;;;;343337;28;82506;-92
2021/12/03 00:26:27;;;;;;;;;;;2.60;99.90;3.30;99273.00;;;;342936;28;90307;-90
2021/12/03 00:26:39;;;;;;;;;;;2.60;99.90;3.30;99281.00;;;;341995;28;82613;-91
2021/12/03 00:26:51;;;;;;;;;;;2.60;99.90;3.30;99281.00;;;;342987;28;91627;-92
2021/12/03 00:27:04;;;;;;;;;;;2.60;99.90;3.20;99272.00;;;;342008;28;83349;-91
2021/12/03 00:27:16;;;;;;;;;;;2.60;99.90;3.20;99268.00;;;;341274;28;90732;-91
2021/12/03 00:27:28;;;;;;;;;;;2.60;99.90;3.10;99274.00;;;;341819;28;83506;-91
2021/12/03 00:27:40;;;;;;;;;;;2.60;99.90;3.10;99280.00;;;;345296;28;91972;-91
2021/12/03 00:27:51;;;;;;;;;;;2.60;99.90;3.00;99273.00;;;;344497;28;82460;-92
2021/12/03 00:28:04;;;;;;;;;;;2.50;99.90;3.00;99277.00;;;;342509;28;91671;-91
2021/12/03 00:28:16;;;;;;;;;;;2.50;99.90;3.00;99279.00;;;;343438;28;82615;-91
2021/12/03 00:28:29;;;;;;;;;;;2.50;99.90;3.10;99273.00;;;;344200;28;92009;-91
2021/12/03 00:28:41;;;;;;;;;;;2.50;99.90;3.10;99273.00;;;;343098;28;82420;-92
2021/12/03 00:28:53;;;;;;;;;;;2.50;99.90;3.10;99269.00;;;;341549;28;90294;-92
2021/12/03 00:29:04;;;;;;;;;;;2.50;99.90;3.10;99273.00;;;;341999;28;83486;-92
2021/12/03 00:29:16;;;;;;;;;;;2.50;99.90;3.20;99269.00;;;;340095;28;91040;-91
2021/12/03 00:29:28;;;;;;;;;;;2.50;99.90;3.10;99271.00;;;;340720;28;83433;-92
2021/12/03 00:29:40;;;;;;;;;;;2.50;99.90;3.10;99272.00;;;;341566;28;90653;-91
2021/12/03 00:29:51;;;;;;;;;;;2.50;99.90;3.10;99272.00;;;;343435;28;82384;-91
2021/12/03 00:30:05;;;;;;;;;;;2.50;99.90;3.10;99282.00;;;;342815;28;92554;-91
2021/12/03 00:30:17;;;;;;;;;;;2.50;99.90;3.10;99274.00;;;;343193;28;83365;-91
2021/12/03 00:30:28;;;;;;;;;;;2.50;99.90;3.20;99281.00;;;;344650;28;91326;-92
2021/12/03 00:30:40;;;;;;;;;;;2.50;99.90;3.10;99272.00;;;;345814;28;83508;-91
2021/12/03 00:30:52;;;;;;;;;;;2.50;99.90;3.20;99277.00;;;;342991;28;90386;-92
2021/12/03 00:31:04;;;;;;;;;;;2.50;99.90;3.10;99273.00;;;;343333;28;83531;-92
2021/12/03 00:31:16;;;;;;;;;;;2.50;99.90;3.10;99278.00;;;;342622;28;89246;-91
2021/12/03 00:31:28;;;;;;;;;;;2.50;99.90;3.20;99267.00;;;;343118;28;83532;-92
2021/12/03 00:31:40;;;;;;;;;;;2.50;99.90;3.20;99273.00;;;;342993;28;92034;-91
2021/12/03 00:31:52;;;;;;;;;;;2.50;99.90;3.20;99273.00;;;;344598;28;83408;-92
2021/12/03 00:32:04;;;;;;;;;;;2.50;99.90;3.10;99272.00;;;;344077;28;92256;-91
2021/12/03 00:32:16;;;;;;;;;;;2.50;99.90;3.10;99274.00;;;;340644;28;82587;-92
2021/12/03 00:32:27;;;;;;;;;;;2.50;99.90;3.20;99272.00;;;;341537;28;91535;-92
2021/12/03 00:32:39;;;;;;;;;;;2.50;99.90;3.10;99266.00;;;;343171;28;83529;-92
2021/12/03 00:32:51;;;;;;;;;;;2.50;99.90;3.10;99270.00;;;;341519;28;90071;-91
2021/12/03 00:33:04;;;;;;;;;;;2.50;99.90;3.10;99273.00;;;;341955;28;82498;-92
2021/12/03 00:33:15;;;;;;;;;;;2.50;99.90;3.10;99261.00;;;;344181;28;91606;-91
2021/12/03 00:33:30;;;;;;;;;;;2.50;99.90;3.20;99274.00;;;;343045;28;83521;-92
2021/12/03 00:33:41;;;;;;;;;;;2.50;99.90;3.10;99271.00;;;;345680;28;90072;-91
2021/12/03 00:33:53;;;;;;;;;;;2.50;99.90;3.20;99270.00;;;;343090;28;84012;-91
2021/12/03 00:34:05;;;;;;;;;;;2.50;99.90;3.20;99271.00;;;;342791;28;91676;-93
2021/12/03 00:34:17;;;;;;;;;;;2.50;99.90;3.20;99268.00;;;;344630;28;83411;-91
2021/12/03 00:34:28;;;;;;;;;;;2.50;99.90;3.10;99261.00;;;;344280;28;91307;-91
2021/12/03 00:34:40;;;;;;;;;;;2.50;99.90;3.10;99274.00;;;;343364;28;83410;-91
2021/12/03 00:34:52;;;;;;;;;;;2.50;99.90;3.00;99273.00;;;;341585;28;90199;-92
2021/12/03 00:35:04;;;;;;;;;;;2.50;99.90;3.00;99275.00;;;;343381;28;83034;-91
2021/12/03 00:35:17;;;;;;;;;;;2.50;99.90;3.10;99274.00;;;;340117;28;91283;-91
2021/12/03 00:35:29;;;;;;;;;;;2.50;99.90;3.10;99272.00;;;;340650;28;83431;-92
2021/12/03 00:35:41;;;;;;;;;;;2.50;99.90;3.00;99269.00;;;;341594;28;90496;-91
2021/12/03 00:35:53;;;;;;;;;;;2.50;99.90;3.00;99281.00;;;;341863;28;83622;-92
2021/12/03 00:36:06;;;;;;;;;;;2.40;99.90;3.00;99270.00;;;;341376;28;91201;-92
2021/12/03 00:36:18;;;;;;;;;;;2.40;99.90;3.00;99266.00;;;;342031;28;83267;-91
2021/12/03 00:36:30;;;;;;;;;;;2.50;99.90;3.00;99276.00;;;;340818;28;90409;-91
2021/12/03 00:36:41;;;;;;;;;;;2.40;99.90;3.10;99273.00;;;;342078;28;82477;-91
2021/12/03 00:36:55;;;;;;;;;;;2.40;99.90;3.10;99272.00;;;;344180;28;90333;-91
2021/12/03 00:37:06;;;;;;;;;;;2.40;99.90;3.20;99268.00;;;;342012;28;82409;-91
2021/12/03 00:37:18;;;;;;;;;;;2.40;99.90;3.00;99273.00;;;;341509;28;91401;-91
2021/12/03 00:37:30;;;;;;;;;;;2.40;99.90;3.00;99284.00;;;;343425;28;83665;-91
2021/12/03 00:37:42;;;;;;;;;;;2.40;99.90;3.10;99277.00;;;;341289;28;90561;-92
2021/12/03 00:37:54;;;;;;;;;;;2.40;99.90;3.10;99278.00;;;;341763;28;83476;-91
2021/12/03 00:38:06;;;;;;;;;;;2.40;99.90;3.10;99278.00;;;;341492;28;92137;-91
2021/12/03 00:38:18;;;;;;;;;;;2.40;99.90;3.10;99287.00;;;;341848;28;82575;-91
2021/12/03 00:38:35;;;;;;;;;;;2.40;99.90;3.10;99277.00;;;;341559;28;90301;-92
2021/12/03 00:38:51;;;;;;;;;;;2.40;99.90;3.10;99275.00;;;;342092;28;82449;-92
2021/12/03 00:39:04;;;;;;;;;;;2.40;99.90;3.10;99284.00;;;;342944;28;90349;-92
2021/12/03 00:39:16;;;;;;;;;;;2.40;99.90;3.00;99285.00;;;;344633;28;83248;-91
2021/12/03 00:39:28;;;;;;;;;;;2.40;99.90;3.00;99285.00;;;;341214;28;90343;-92
2021/12/03 00:39:39;;;;;;;;;;;2.40;99.90;3.10;99275.00;;;;343266;28;83525;-91
2021/12/03 00:39:51;;;;;;;;;;;2.40;99.90;3.10;99278.00;;;;342755;28;90489;-91
2021/12/03 00:40:07;;;;;;;;;;;2.40;99.90;3.10;99280.00;;;;340752;28;83330;-92
2021/12/03 00:40:25;;;;;;;;;;;2.40;99.90;3.10;99280.00;;;;338719;28;93608;-92
2021/12/03 00:40:39;;;;;;;;;;;2.40;99.90;3.10;99280.00;;;;343206;28;82357;-91
2021/12/03 00:40:51;;;;;;;;;;;2.40;99.90;3.10;99279.00;;;;342868;28;90534;-91
2021/12/03 00:41:05;;;;;;;;;;;2.40;99.90;3.00;99263.00;;;;341773;28;83430;-92
2021/12/03 00:41:20;;;;;;;;;;;2.40;99.90;3.00;99281.00;;;;340108;28;91161;-92
2021/12/03 00:41:36;;;;;;;;;;;2.40;99.90;3.00;99266.00;;;;342101;28;83235;-91
2021/12/03 00:41:53;;;;;;;;;;;2.40;99.90;2.90;99281.00;;;;341573;28;89823;-91
2021/12/03 00:42:05;;;;;;;;;;;2.40;99.90;3.00;99277.00;;;;343427;28;83336;-91
2021/12/03 00:42:18;;;;;;;;;;;2.40;99.90;3.00;99279.00;;;;344013;28;88503;-91
2021/12/03 00:42:31;;;;;;;;;;;2.40;99.90;3.00;99281.00;;;;342672;28;83069;-92
2021/12/03 00:42:42;;;;;;;;;;;2.40;99.90;3.10;99278.00;;;;342776;28;92330;-91
2021/12/03 00:42:54;;;;;;;;;;;2.40;99.90;3.10;99281.00;;;;341405;28;83571;-92
2021/12/03 00:43:07;;;;;;;;;;;2.40;99.90;3.10;99277.00;;;;344163;28;90133;-91
2021/12/03 00:43:19;;;;;;;;;;;2.40;99.90;3.10;99278.00;;;;341925;28;83546;-92
2021/12/03 00:43:31;;;;;;;;;;;2.40;99.90;3.10;99280.00;;;;340163;28;89509;-93
2021/12/03 00:43:46;;;;;;;;;;;2.40;99.90;3.10;99278.00;;;;343422;28;82496;-92
2021/12/03 00:43:58;;;;;;;;;;;2.50;99.90;3.10;99281.00;;;;344279;28;90140;-92
2021/12/03 00:44:10;;;;;;;;;;;2.40;99.90;3.10;99281.00;;;;340760;28;83410;-92
2021/12/03 00:44:24;;;;;;;;;;;2.40;99.90;3.10;99279.00;;;;342970;28;91029;-92
2021/12/03 00:44:35;;;;;;;;;;;2.40;99.90;3.00;99278.00;;;;343263;28;83525;-92
2021/12/03 00:44:52;;;;;;;;;;;2.50;99.90;3.00;99279.00;;;;342653;28;91486;-92
2021/12/03 00:45:04;;;;;;;;;;;2.40;99.90;3.00;99281.00;;;;344589;28;82504;-91
2021/12/03 00:45:16;;;;;;;;;;;2.40;99.90;3.00;99279.00;;;;342726;28;91304;-92
2021/12/03 00:45:30;;;;;;;;;;;2.40;99.90;3.10;99284.00;;;;341670;28;82433;-91
2021/12/03 00:45:43;;;;;;;;;;;2.40;99.90;3.10;99273.00;;;;342996;28;92294;-90
2021/12/03 00:46:04;;;;;;;;;;;2.40;99.90;3.10;99278.00;;;;342072;28;83518;-92
2021/12/03 00:46:17;;;;;;;;;;;2.50;99.90;3.10;99277.00;;;;341799;28;90900;-92
2021/12/03 00:46:29;;;;;;;;;;;2.50;99.90;3.10;99283.00;;;;343634;28;82557;-91
2021/12/03 00:46:41;;;;;;;;;;;2.50;99.90;3.10;99282.00;;;;343309;28;90606;-92
2021/12/03 00:46:53;;;;;;;;;;;2.40;99.90;3.10;99282.00;;;;342277;28;83300;-92
2021/12/03 00:47:05;;;;;;;;;;;2.40;99.90;3.10;99281.00;;;;340187;28;90573;-91
2021/12/03 00:47:16;;;;;;;;;;;2.40;99.90;3.10;99287.00;;;;343323;28;83419;-91
2021/12/03 00:47:28;;;;;;;;;;;2.40;99.90;3.10;99281.00;;;;340534;28;91667;-93
2021/12/03 00:47:41;;;;;;;;;;;2.40;99.90;3.10;99286.00;;;;340762;28;83384;-92
2021/12/03 00:47:52;;;;;;;;;;;2.40;99.90;3.10;99290.00;;;;341793;28;90056;-91
2021/12/03 00:48:04;;;;;;;;;;;2.40;99.90;3.10;99285.00;;;;340834;28;82526;-91
2021/12/03 00:48:16;;;;;;;;;;;2.40;99.90;3.10;99289.00;;;;342956;28;89559;-91
2021/12/03 00:48:29;;;;;;;;;;;2.40;99.90;3.10;99289.00;;;;343301;28;83538;-92
2021/12/03 00:48:40;;;;;;;;;;;2.50;99.90;3.10;99289.00;;;;341811;28;90372;-91
2021/12/03 00:48:53;;;;;;;;;;;2.40;99.90;3.10;99290.00;;;;343439;28;83643;-91
2021/12/03 00:49:05;;;;;;;;;;;2.50;99.90;3.00;99284.00;;;;341707;28;92349;-91
2021/12/03 00:49:17;;;;;;;;;;;2.40;99.90;2.90;99291.00;;;;342061;28;83450;-91
2021/12/03 00:49:29;;;;;;;;;;;2.40;99.90;2.90;99290.00;;;;340328;28;90269;-92
2021/12/03 00:49:40;;;;;;;;;;;2.40;99.90;3.00;99290.00;;;;342280;28;82522;-91
2021/12/03 00:49:52;;;;;;;;;;;2.40;99.90;3.10;99289.00;;;;344314;28;90076;-92
2021/12/03 00:50:05;;;;;;;;;;;2.40;99.90;3.10;99285.00;;;;344908;28;83483;-91
2021/12/03 00:50:20;;;;;;;;;;;2.40;99.90;3.10;99281.00;;;;341909;28;87968;-92
2021/12/03 00:50:32;;;;;;;;;;;2.40;99.90;3.00;99292.00;;;;343402;28;82557;-92
2021/12/03 00:50:43;;;;;;;;;;;2.50;99.90;3.00;99287.00;;;;343109;28;91539;-92
2021/12/03 00:50:55;;;;;;;;;;;2.50;99.90;3.10;99283.00;;;;343395;28;83178;-92
2021/12/03 00:51:08;;;;;;;;;;;2.40;99.90;3.00;99300.00;;;;344412;28;91273;-91
2021/12/03 00:51:21;;;;;;;;;;;2.50;99.90;3.00;99292.00;;;;342826;28;82394;-92
2021/12/03 00:51:32;;;;;;;;;;;2.40;99.90;3.00;99286.00;;;;341495;28;91403;-91
2021/12/03 00:51:44;;;;;;;;;;;2.40;99.90;3.10;99293.00;;;;343402;28;83487;-92
2021/12/03 00:51:56;;;;;;;;;;;2.40;99.90;3.00;99295.00;;;;341613;28;90354;-91
2021/12/03 00:52:07;;;;;;;;;;;2.40;99.90;3.00;99293.00;;;;340702;28;83444;-92
2021/12/03 00:52:19;;;;;;;;;;;2.40;99.90;3.00;99289.00;;;;342807;28;90339;-91
2021/12/03 00:52:31;;;;;;;;;;;2.40;99.90;3.00;99297.00;;;;341895;28;82372;-91
2021/12/03 00:52:43;;;;;;;;;;;2.40;99.90;3.00;99289.00;;;;341519;28;91175;-92
2021/12/03 00:52:56;;;;;;;;;;;2.40;99.90;3.10;99290.00;;;;342074;28;83247;-91
2021/12/03 00:53:07;;;;;;;;;;;2.40;99.90;3.10;99287.00;;;;343332;28;90370;-91
2021/12/03 00:53:19;;;;;;;;;;;2.40;99.90;3.10;99283.00;;;;344584;28;82383;-92
2021/12/03 00:53:31;;;;;;;;;;;2.40;99.90;3.00;99289.00;;;;343047;28;90079;-91
2021/12/03 00:53:42;;;;;;;;;;;2.40;99.90;3.00;99288.00;;;;343337;28;83382;-92
2021/12/03 00:53:54;;;;;;;;;;;2.40;99.90;3.10;99289.00;;;;344155;28;91670;-92
2021/12/03 00:54:07;;;;;;;;;;;2.40;99.90;3.00;99291.00;;;;343385;28;83284;-91
2021/12/03 00:54:18;;;;;;;;;;;2.40;99.90;2.90;99289.00;;;;342004;28;91874;-92
2021/12/03 00:54:30;;;;;;;;;;;2.40;99.90;2.90;99291.00;;;;341512;28;83387;-91
2021/12/03 00:54:42;;;;;;;;;;;2.40;99.90;2.90;99287.00;;;;344340;28;90297;-92
2021/12/03 00:54:54;;;;;;;;;;;2.40;99.90;3.00;99291.00;;;;344221;28;82515;-91
2021/12/03 00:55:06;;;;;;;;;;;2.40;99.90;3.00;99294.00;;;;341448;28;91301;-91
2021/12/03 00:55:19;;;;;;;;;;;2.40;99.90;3.10;99289.00;;;;341843;28;82412;-92
2021/12/03 00:55:31;;;;;;;;;;;2.40;99.90;3.10;99281.00;;;;343238;28;91524;-91
2021/12/03 00:55:45;;;;;;;;;;;2.40;99.90;3.10;99287.00;;;;342353;28;82532;-91
2021/12/03 00:55:56;;;;;;;;;;;2.40;99.90;3.10;99289.00;;;;344379;28;91303;-91
2021/12/03 00:56:09;;;;;;;;;;;2.40;99.90;3.00;99288.00;;;;343689;28;82922;-91
2021/12/03 00:56:20;;;;;;;;;;;2.40;99.90;3.00;99293.00;;;;343243;28;91893;-91
2021/12/03 00:56:32;;;;;;;;;;;2.40;99.90;3.00;99297.00;;;;345059;28;83455;-92
2021/12/03 00:56:44;;;;;;;;;;;2.40;99.90;2.90;99293.00;;;;342007;28;91357;-91
2021/12/03 00:56:56;;;;;;;;;;;2.40;99.90;3.00;99289.00;;;;343816;28;82264;-91
2021/12/03 00:57:08;;;;;;;;;;;2.40;99.90;3.00;99296.00;;;;343154;28;92209;-92
2021/12/03 00:57:20;;;;;;;;;;;2.40;99.90;3.00;99296.00;;;;342014;28;83445;-92
2021/12/03 00:57:31;;;;;;;;;;;2.40;99.90;3.00;99308.00;;;;342795;28;91383;-91
2021/12/03 00:57:43;;;;;;;;;;;2.40;99.90;3.00;99289.00;;;;343724;28;83459;-91
2021/12/03 00:57:55;;;;;;;;;;;2.40;99.90;3.10;99295.00;;;;343399;28;91986;-91
2021/12/03 00:58:07;;;;;;;;;;;2.40;99.90;3.10;99288.00;;;;345051;28;82428;-91
2021/12/03 00:58:18;;;;;;;;;;;2.40;99.90;3.00;99291.00;;;;343162;28;89648;-92
2021/12/03 00:58:31;;;;;;;;;;;2.40;99.90;3.00;99291.00;;;;345080;28;84255;-92
2021/12/03 00:58:43;;;;;;;;;;;2.40;99.90;2.90;99300.00;;;;344702;28;89124;-92
2021/12/03 00:58:54;;;;;;;;;;;2.40;99.90;3.00;99300.00;;;;345119;28;83315;-91
2021/12/03 00:59:06;;;;;;;;;;;2.30;99.90;3.00;99293.00;;;;344704;28;92438;-91
2021/12/03 00:59:18;;;;;;;;;;;2.40;99.90;3.00;99291.00;;;;342243;28;83578;-91
2021/12/03 00:59:30;;;;;;;;;;;2.40;99.90;3.00;99291.00;;;;344577;28;91101;-91
2021/12/03 00:59:42;;;;;;;;;;;2.40;99.90;3.00;99296.00;;;;343579;28;83480;-91
2021/12/03 00:59:54;;;;;;;;;;;2.40;99.90;2.90;99294.00;;;;343130;28;91724;-91
2021/12/03 01:00:09;;;;;;;;;;;2.40;99.90;3.00;99304.00;;;;341812;28;82372;-91
2021/12/03 01:00:24;;;;;;;;;;;2.40;99.90;3.10;99300.00;;;;342483;28;90586;-91
2021/12/03 01:00:36;;;;;;;;;;;2.40;99.90;3.10;99289.00;;;;343943;28;82599;-91
2021/12/03 01:00:48;;;;;;;;;;;2.40;99.90;3.10;99305.00;;;;345470;28;89270;-91
2021/12/03 01:01:01;;;;;;;;;;;2.40;99.90;3.00;99296.00;;;;344630;28;83302;-92
2021/12/03 01:01:13;;;;;;;;;;;2.40;99.90;3.00;99298.00;;;;342796;28;91744;-91
2021/12/03 01:01:25;;;;;;;;;;;2.40;99.90;3.00;99295.00;;;;344076;28;82475;-91
2021/12/03 01:01:38;;;;;;;;;;;2.40;99.90;3.00;99304.00;;;;343039;28;91503;-89
2021/12/03 01:01:50;;;;;;;;;;;2.40;99.90;3.10;99297.00;;;;341818;28;83917;-91
2021/12/03 01:02:02;;;;;;;;;;;2.40;99.90;3.10;99308.00;;;;345693;28;90332;-91
2021/12/03 01:02:16;;;;;;;;;;;2.40;99.90;3.00;99309.00;;;;341933;28;82617;-91
2021/12/03 01:02:28;;;;;;;;;;;2.40;99.90;2.90;99306.00;;;;340138;28;91463;-92
2021/12/03 01:02:40;;;;;;;;;;;2.40;99.90;2.90;99308.00;;;;346030;28;82531;-91
2021/12/03 01:02:54;;;;;;;;;;;2.40;99.90;2.90;99297.00;;;;344282;28;91641;-91
2021/12/03 01:03:06;;;;;;;;;;;2.30;99.90;2.90;99291.00;;;;343113;28;83954;-91